sensor_id;sensor_type;location;lat;lon;timestamp;P1;durP1;ratioP1;P2;durP2;ratioP2
46284;SDS011;32018;59.182;18.148;2023-04-01T00:00:55;1.00;;;1.00;;
46284;SDS011;32018;59.182;18.148;2023-04-01T00:03:21;0.90;;;0.90;;
46284;SDS011;32018;59.182;18.148;2023-04-01T00:05:46;0.95;;;0.93;;
46284;SDS011;32018;59.182;18.148;2023-04-01T00:08:11;0.85;;;0.85;;
46284;SDS011;32018;59.182;18.148;2023-04-01T00:10:37;0.80;;;0.80;;
46284;SDS011;32018;59.182;18.148;2023-04-01T00:13:02;0.98;;;0.98;;
46284;SDS011;32018;59.182;18.148;2023-04-01T00:15:28;1.10;;;1.00;;
46284;SDS011;32018;59.182;18.148;2023-04-01T00:17:53;1.42;;;0.98;;
46284;SDS011;32018;59.182;18.148;2023-04-01T00:20:19;1.00;;;1.00;;
46284;SDS011;32018;59.182;18.148;2023-04-01T00:22:44;0.98;;;0.98;;
46284;SDS011;32018;59.182;18.148;2023-04-01T00:25:10;1.05;;;1.00;;
46284;SDS011;32018;59.182;18.148;2023-04-01T00:27:35;0.90;;;0.90;;
46284;SDS011;32018;59.182;18.148;2023-04-01T00:30:00;1.25;;;1.17;;
46284;SDS011;32018;59.182;18.148;2023-04-01T00:32:26;1.05;;;1.00;;
46284;SDS011;32018;59.182;18.148;2023-04-01T00:34:51;0.90;;;0.90;;
46284;SDS011;32018;59.182;18.148;2023-04-01T00:37:17;1.05;;;1.05;;
46284;SDS011;32018;59.182;18.148;2023-04-01T00:39:42;1.05;;;0.95;;
46284;SDS011;32018;59.182;18.148;2023-04-01T00:42:09;0.98;;;0.98;;
46284;SDS011;32018;59.182;18.148;2023-04-01T00:44:36;0.90;;;0.90;;
46284;SDS011;32018;59.182;18.148;2023-04-01T00:47:02;1.23;;;1.13;;
46284;SDS011;32018;59.182;18.148;2023-04-01T00:49:29;0.93;;;0.90;;
46284;SDS011;32018;59.182;18.148;2023-04-01T00:51:56;1.05;;;1.05;;
46284;SDS011;32018;59.182;18.148;2023-04-01T00:54:22;0.90;;;0.90;;
46284;SDS011;32018;59.182;18.148;2023-04-01T00:56:59;1.17;;;1.10;;
46284;SDS011;32018;59.182;18.148;2023-04-01T00:59:29;1.02;;;1.02;;
46284;SDS011;32018;59.182;18.148;2023-04-01T01:04:26;1.35;;;1.08;;
46284;SDS011;32018;59.182;18.148;2023-04-01T01:11:50;0.90;;;0.90;;
46284;SDS011;32018;59.182;18.148;2023-04-01T01:16:45;1.17;;;1.10;;
46284;SDS011;32018;59.182;18.148;2023-04-01T01:19:22;0.90;;;0.90;;
46284;SDS011;32018;59.182;18.148;2023-04-01T01:21:56;1.15;;;1.10;;
46284;SDS011;32018;59.182;18.148;2023-04-01T01:26:59;1.10;;;1.00;;
46284;SDS011;32018;59.182;18.148;2023-04-01T01:32:21;0.90;;;0.90;;
46284;SDS011;32018;59.182;18.148;2023-04-01T01:34:53;0.98;;;0.98;;
46284;SDS011;32018;59.182;18.148;2023-04-01T01:37:21;2.25;;;1.00;;
46284;SDS011;32018;59.182;18.148;2023-04-01T01:39:49;0.90;;;0.90;;
46284;SDS011;32018;59.182;18.148;2023-04-01T01:42:15;1.67;;;1.20;;
46284;SDS011;32018;59.182;18.148;2023-04-01T01:44:41;0.90;;;0.90;;
46284;SDS011;32018;59.182;18.148;2023-04-01T01:47:08;0.90;;;0.90;;
46284;SDS011;32018;59.182;18.148;2023-04-01T01:49:33;0.90;;;0.90;;
46284;SDS011;32018;59.182;18.148;2023-04-01T01:52:00;0.90;;;0.90;;
46284;SDS011;32018;59.182;18.148;2023-04-01T01:54:26;1.33;;;1.02;;
46284;SDS011;32018;59.182;18.148;2023-04-01T01:56:52;1.02;;;1.00;;
46284;SDS011;32018;59.182;18.148;2023-04-01T01:59:21;1.20;;;1.20;;
46284;SDS011;32018;59.182;18.148;2023-04-01T02:01:49;0.90;;;0.90;;
46284;SDS011;32018;59.182;18.148;2023-04-01T02:04:15;1.08;;;0.90;;
46284;SDS011;32018;59.182;18.148;2023-04-01T02:06:44;0.90;;;0.90;;
46284;SDS011;32018;59.182;18.148;2023-04-01T02:09:11;1.00;;;1.00;;
46284;SDS011;32018;59.182;18.148;2023-04-01T02:11:45;0.88;;;0.88;;
46284;SDS011;32018;59.182;18.148;2023-04-01T02:14:16;0.90;;;0.90;;
46284;SDS011;32018;59.182;18.148;2023-04-01T02:16:49;0.93;;;0.93;;
46284;SDS011;32018;59.182;18.148;2023-04-01T02:19:16;0.88;;;0.88;;
46284;SDS011;32018;59.182;18.148;2023-04-01T02:21:47;1.00;;;1.00;;
46284;SDS011;32018;59.182;18.148;2023-04-01T02:24:13;2.08;;;1.17;;
46284;SDS011;32018;59.182;18.148;2023-04-01T02:26:40;0.93;;;0.93;;
46284;SDS011;32018;59.182;18.148;2023-04-01T02:29:05;1.05;;;0.90;;
46284;SDS011;32018;59.182;18.148;2023-04-01T02:31:31;1.00;;;1.00;;
46284;SDS011;32018;59.182;18.148;2023-04-01T02:33:57;0.80;;;0.80;;
46284;SDS011;32018;59.182;18.148;2023-04-01T02:36:22;1.02;;;1.02;;
46284;SDS011;32018;59.182;18.148;2023-04-01T02:38:48;1.60;;;1.02;;
46284;SDS011;32018;59.182;18.148;2023-04-01T02:41:14;0.80;;;0.80;;
46284;SDS011;32018;59.182;18.148;2023-04-01T02:43:39;0.85;;;0.85;;
46284;SDS011;32018;59.182;18.148;2023-04-01T02:46:05;1.10;;;1.10;;
46284;SDS011;32018;59.182;18.148;2023-04-01T02:48:30;0.85;;;0.82;;
46284;SDS011;32018;59.182;18.148;2023-04-01T02:50:55;1.13;;;1.10;;
46284;SDS011;32018;59.182;18.148;2023-04-01T02:53:21;0.90;;;0.90;;
46284;SDS011;32018;59.182;18.148;2023-04-01T02:55:46;0.90;;;0.90;;
46284;SDS011;32018;59.182;18.148;2023-04-01T02:58:11;0.90;;;0.90;;
46284;SDS011;32018;59.182;18.148;2023-04-01T03:00:37;0.95;;;0.95;;
46284;SDS011;32018;59.182;18.148;2023-04-01T03:03:02;0.80;;;0.80;;
46284;SDS011;32018;59.182;18.148;2023-04-01T03:05:28;1.10;;;1.10;;
46284;SDS011;32018;59.182;18.148;2023-04-01T03:07:53;1.00;;;1.00;;
46284;SDS011;32018;59.182;18.148;2023-04-01T03:10:18;0.90;;;0.90;;
46284;SDS011;32018;59.182;18.148;2023-04-01T03:12:43;0.90;;;0.90;;
46284;SDS011;32018;59.182;18.148;2023-04-01T03:15:11;0.95;;;0.95;;
46284;SDS011;32018;59.182;18.148;2023-04-01T03:17:38;1.10;;;1.00;;
46284;SDS011;32018;59.182;18.148;2023-04-01T03:20:03;0.90;;;0.90;;
46284;SDS011;32018;59.182;18.148;2023-04-01T03:22:30;0.90;;;0.90;;
46284;SDS011;32018;59.182;18.148;2023-04-01T03:24:55;1.05;;;1.00;;
46284;SDS011;32018;59.182;18.148;2023-04-01T03:27:20;1.02;;;1.00;;
46284;SDS011;32018;59.182;18.148;2023-04-01T03:29:45;1.20;;;1.10;;
46284;SDS011;32018;59.182;18.148;2023-04-01T03:32:11;0.90;;;0.90;;
46284;SDS011;32018;59.182;18.148;2023-04-01T03:34:36;1.00;;;1.00;;
46284;SDS011;32018;59.182;18.148;2023-04-01T03:37:01;1.00;;;1.00;;
46284;SDS011;32018;59.182;18.148;2023-04-01T03:39:26;0.90;;;0.90;;
46284;SDS011;32018;59.182;18.148;2023-04-01T03:41:51;0.90;;;0.90;;
46284;SDS011;32018;59.182;18.148;2023-04-01T03:44:17;0.95;;;0.95;;
46284;SDS011;32018;59.182;18.148;2023-04-01T03:46:42;0.90;;;0.90;;
46284;SDS011;32018;59.182;18.148;2023-04-01T03:49:08;1.00;;;1.00;;
46284;SDS011;32018;59.182;18.148;2023-04-01T03:51:40;1.00;;;1.00;;
46284;SDS011;32018;59.182;18.148;2023-04-01T03:54:06;0.90;;;0.90;;
46284;SDS011;32018;59.182;18.148;2023-04-01T03:56:31;0.80;;;0.80;;
46284;SDS011;32018;59.182;18.148;2023-04-01T03:58:57;0.90;;;0.90;;
46284;SDS011;32018;59.182;18.148;2023-04-01T04:01:22;1.20;;;1.17;;
46284;SDS011;32018;59.182;18.148;2023-04-01T04:03:48;1.10;;;1.00;;
46284;SDS011;32018;59.182;18.148;2023-04-01T04:06:14;0.90;;;0.90;;
46284;SDS011;32018;59.182;18.148;2023-04-01T04:08:39;0.80;;;0.80;;
46284;SDS011;32018;59.182;18.148;2023-04-01T04:11:05;0.88;;;0.88;;
46284;SDS011;32018;59.182;18.148;2023-04-01T04:13:30;0.70;;;0.70;;
46284;SDS011;32018;59.182;18.148;2023-04-01T04:15:56;0.93;;;0.90;;
46284;SDS011;32018;59.182;18.148;2023-04-01T04:18:21;0.90;;;0.90;;
46284;SDS011;32018;59.182;18.148;2023-04-01T04:20:46;1.30;;;1.20;;
46284;SDS011;32018;59.182;18.148;2023-04-01T04:23:13;0.85;;;0.80;;
46284;SDS011;32018;59.182;18.148;2023-04-01T04:25:38;0.90;;;0.90;;
46284;SDS011;32018;59.182;18.148;2023-04-01T04:28:03;1.00;;;1.00;;
46284;SDS011;32018;59.182;18.148;2023-04-01T04:30:29;0.73;;;0.73;;
46284;SDS011;32018;59.182;18.148;2023-04-01T04:32:54;0.90;;;0.90;;
46284;SDS011;32018;59.182;18.148;2023-04-01T04:35:19;1.77;;;0.95;;
46284;SDS011;32018;59.182;18.148;2023-04-01T04:37:45;0.95;;;0.95;;
46284;SDS011;32018;59.182;18.148;2023-04-01T04:40:10;0.90;;;0.90;;
46284;SDS011;32018;59.182;18.148;2023-04-01T04:42:35;0.80;;;0.80;;
46284;SDS011;32018;59.182;18.148;2023-04-01T04:45:01;0.93;;;0.93;;
46284;SDS011;32018;59.182;18.148;2023-04-01T04:47:26;0.85;;;0.85;;
46284;SDS011;32018;59.182;18.148;2023-04-01T04:49:51;0.95;;;0.90;;
46284;SDS011;32018;59.182;18.148;2023-04-01T04:52:16;0.90;;;0.90;;
46284;SDS011;32018;59.182;18.148;2023-04-01T04:54:41;0.98;;;0.98;;
46284;SDS011;32018;59.182;18.148;2023-04-01T04:57:07;0.80;;;0.80;;
46284;SDS011;32018;59.182;18.148;2023-04-01T04:59:32;0.90;;;0.90;;
46284;SDS011;32018;59.182;18.148;2023-04-01T05:01:57;1.02;;;1.02;;
46284;SDS011;32018;59.182;18.148;2023-04-01T05:04:22;1.35;;;0.85;;
46284;SDS011;32018;59.182;18.148;2023-04-01T05:06:48;1.10;;;1.00;;
46284;SDS011;32018;59.182;18.148;2023-04-01T05:09:13;0.90;;;0.90;;
46284;SDS011;32018;59.182;18.148;2023-04-01T05:11:39;0.90;;;0.90;;
46284;SDS011;32018;59.182;18.148;2023-04-01T05:14:05;1.17;;;1.10;;
46284;SDS011;32018;59.182;18.148;2023-04-01T05:16:30;0.90;;;0.90;;
46284;SDS011;32018;59.182;18.148;2023-04-01T05:18:56;1.33;;;0.90;;
46284;SDS011;32018;59.182;18.148;2023-04-01T05:21:21;0.90;;;0.90;;
46284;SDS011;32018;59.182;18.148;2023-04-01T05:23:47;0.95;;;0.88;;
46284;SDS011;32018;59.182;18.148;2023-04-01T05:26:12;1.10;;;0.90;;
46284;SDS011;32018;59.182;18.148;2023-04-01T05:28:38;0.95;;;0.95;;
46284;SDS011;32018;59.182;18.148;2023-04-01T05:31:04;0.90;;;0.90;;
46284;SDS011;32018;59.182;18.148;2023-04-01T05:33:30;0.93;;;0.93;;
46284;SDS011;32018;59.182;18.148;2023-04-01T05:35:55;0.90;;;0.90;;
46284;SDS011;32018;59.182;18.148;2023-04-01T05:38:21;0.90;;;0.90;;
46284;SDS011;32018;59.182;18.148;2023-04-01T05:40:46;0.90;;;0.90;;
46284;SDS011;32018;59.182;18.148;2023-04-01T05:43:12;0.90;;;0.90;;
46284;SDS011;32018;59.182;18.148;2023-04-01T05:45:37;1.10;;;0.93;;
46284;SDS011;32018;59.182;18.148;2023-04-01T05:48:02;1.00;;;1.00;;
46284;SDS011;32018;59.182;18.148;2023-04-01T05:50:27;1.00;;;0.90;;
46284;SDS011;32018;59.182;18.148;2023-04-01T05:52:53;0.90;;;0.90;;
46284;SDS011;32018;59.182;18.148;2023-04-01T05:55:18;0.90;;;0.90;;
46284;SDS011;32018;59.182;18.148;2023-04-01T05:57:44;0.88;;;0.88;;
46284;SDS011;32018;59.182;18.148;2023-04-01T06:00:10;0.88;;;0.88;;
46284;SDS011;32018;59.182;18.148;2023-04-01T06:02:35;1.00;;;0.90;;
46284;SDS011;32018;59.182;18.148;2023-04-01T06:05:03;0.80;;;0.80;;
46284;SDS011;32018;59.182;18.148;2023-04-01T06:07:36;1.08;;;0.98;;
46284;SDS011;32018;59.182;18.148;2023-04-01T06:10:01;1.30;;;0.90;;
46284;SDS011;32018;59.182;18.148;2023-04-01T06:12:36;1.13;;;0.98;;
46284;SDS011;32018;59.182;18.148;2023-04-01T06:30:53;0.80;;;0.80;;
46284;SDS011;32018;59.182;18.148;2023-04-01T06:33:33;0.80;;;0.80;;
46284;SDS011;32018;59.182;18.148;2023-04-01T06:51:29;0.95;;;0.88;;
46284;SDS011;32018;59.182;18.148;2023-04-01T06:54:03;0.98;;;0.98;;
46284;SDS011;32018;59.182;18.148;2023-04-01T06:56:29;1.10;;;1.00;;
46284;SDS011;32018;59.182;18.148;2023-04-01T06:59:02;0.93;;;0.90;;
46284;SDS011;32018;59.182;18.148;2023-04-01T07:01:32;2.13;;;0.90;;
46284;SDS011;32018;59.182;18.148;2023-04-01T07:04:00;0.85;;;0.85;;
46284;SDS011;32018;59.182;18.148;2023-04-01T07:06:30;1.20;;;1.00;;
46284;SDS011;32018;59.182;18.148;2023-04-01T07:08:56;2.10;;;0.93;;
46284;SDS011;32018;59.182;18.148;2023-04-01T07:11:29;0.90;;;0.90;;
46284;SDS011;32018;59.182;18.148;2023-04-01T07:16:21;0.80;;;0.80;;
46284;SDS011;32018;59.182;18.148;2023-04-01T07:21:40;1.13;;;0.93;;
46284;SDS011;32018;59.182;18.148;2023-04-01T07:24:47;0.85;;;0.80;;
46284;SDS011;32018;59.182;18.148;2023-04-01T07:26:48;6.07;;;0.95;;
46284;SDS011;32018;59.182;18.148;2023-04-01T07:29:17;0.98;;;0.90;;
46284;SDS011;32018;59.182;18.148;2023-04-01T07:31:50;1.42;;;0.90;;
46284;SDS011;32018;59.182;18.148;2023-04-01T07:34:27;0.80;;;0.80;;
46284;SDS011;32018;59.182;18.148;2023-04-01T07:47:43;1.83;;;0.98;;
46284;SDS011;32018;59.182;18.148;2023-04-01T07:50:18;1.08;;;0.90;;
46284;SDS011;32018;59.182;18.148;2023-04-01T07:55:26;1.63;;;1.10;;
46284;SDS011;32018;59.182;18.148;2023-04-01T08:00:22;2.50;;;1.20;;
46284;SDS011;32018;59.182;18.148;2023-04-01T08:05:18;0.93;;;0.90;;
46284;SDS011;32018;59.182;18.148;2023-04-01T08:07:51;1.67;;;0.90;;
46284;SDS011;32018;59.182;18.148;2023-04-01T08:17:45;1.10;;;0.80;;
46284;SDS011;32018;59.182;18.148;2023-04-01T08:22:40;2.25;;;1.08;;
46284;SDS011;32018;59.182;18.148;2023-04-01T08:25:06;0.80;;;0.80;;
46284;SDS011;32018;59.182;18.148;2023-04-01T08:27:37;0.80;;;0.80;;
46284;SDS011;32018;59.182;18.148;2023-04-01T08:30:15;1.60;;;0.90;;
46284;SDS011;32018;59.182;18.148;2023-04-01T08:32:42;2.42;;;0.88;;
46284;SDS011;32018;59.182;18.148;2023-04-01T08:37:39;0.90;;;0.90;;
46284;SDS011;32018;59.182;18.148;2023-04-01T08:50:42;1.05;;;0.90;;
46284;SDS011;32018;59.182;18.148;2023-04-01T08:58:30;0.90;;;0.75;;
46284;SDS011;32018;59.182;18.148;2023-04-01T09:00:57;1.75;;;0.90;;
46284;SDS011;32018;59.182;18.148;2023-04-01T09:22:13;1.40;;;0.80;;
46284;SDS011;32018;59.182;18.148;2023-04-01T09:24:44;0.70;;;0.70;;
46284;SDS011;32018;59.182;18.148;2023-04-01T09:27:27;0.80;;;0.80;;
46284;SDS011;32018;59.182;18.148;2023-04-01T09:32:47;1.02;;;0.88;;
46284;SDS011;32018;59.182;18.148;2023-04-01T09:35:22;0.95;;;0.70;;
46284;SDS011;32018;59.182;18.148;2023-04-01T09:45:41;1.05;;;0.70;;
46284;SDS011;32018;59.182;18.148;2023-04-01T09:48:51;0.70;;;0.70;;
46284;SDS011;32018;59.182;18.148;2023-04-01T10:09:05;1.55;;;0.90;;
46284;SDS011;32018;59.182;18.148;2023-04-01T10:19:23;0.70;;;0.68;;
46284;SDS011;32018;59.182;18.148;2023-04-01T10:42:53;1.05;;;0.73;;
46284;SDS011;32018;59.182;18.148;2023-04-01T10:45:42;1.13;;;0.80;;
46284;SDS011;32018;59.182;18.148;2023-04-01T11:03:46;1.17;;;0.70;;
46284;SDS011;32018;59.182;18.148;2023-04-01T11:27:17;0.88;;;0.70;;
46284;SDS011;32018;59.182;18.148;2023-04-01T11:37:38;0.70;;;0.60;;
46284;SDS011;32018;59.182;18.148;2023-04-01T11:50:11;4.00;;;1.08;;
46284;SDS011;32018;59.182;18.148;2023-04-01T12:02:51;0.80;;;0.60;;
46284;SDS011;32018;59.182;18.148;2023-04-01T12:30:51;0.53;;;0.50;;
46284;SDS011;32018;59.182;18.148;2023-04-01T12:33:23;0.82;;;0.57;;
46284;SDS011;32018;59.182;18.148;2023-04-01T12:46:32;0.70;;;0.60;;
46284;SDS011;32018;59.182;18.148;2023-04-01T12:52:02;0.55;;;0.50;;
46284;SDS011;32018;59.182;18.148;2023-04-01T12:59:57;1.75;;;0.70;;
46284;SDS011;32018;59.182;18.148;2023-04-01T13:05:01;0.50;;;0.50;;
46284;SDS011;32018;59.182;18.148;2023-04-01T13:07:45;0.50;;;0.50;;
46284;SDS011;32018;59.182;18.148;2023-04-01T13:20:35;1.05;;;0.95;;
46284;SDS011;32018;59.182;18.148;2023-04-01T13:25:39;0.63;;;0.60;;
46284;SDS011;32018;59.182;18.148;2023-04-01T13:28:14;1.10;;;0.55;;
46284;SDS011;32018;59.182;18.148;2023-04-01T13:33:15;0.63;;;0.63;;
46284;SDS011;32018;59.182;18.148;2023-04-01T13:38:29;0.60;;;0.60;;
46284;SDS011;32018;59.182;18.148;2023-04-01T13:43:43;0.93;;;0.50;;
46284;SDS011;32018;59.182;18.148;2023-04-01T13:46:22;1.35;;;0.50;;
46284;SDS011;32018;59.182;18.148;2023-04-01T13:48:54;2.35;;;0.95;;
46284;SDS011;32018;59.182;18.148;2023-04-01T13:51:43;1.90;;;0.50;;
46284;SDS011;32018;59.182;18.148;2023-04-01T13:54:27;0.60;;;0.60;;
46284;SDS011;32018;59.182;18.148;2023-04-01T14:17:22;0.47;;;0.47;;
46284;SDS011;32018;59.182;18.148;2023-04-01T14:20:00;0.40;;;0.40;;
46284;SDS011;32018;59.182;18.148;2023-04-01T14:22:46;0.50;;;0.50;;
46284;SDS011;32018;59.182;18.148;2023-04-01T14:25:30;0.40;;;0.40;;
46284;SDS011;32018;59.182;18.148;2023-04-01T14:28:11;0.90;;;0.60;;
46284;SDS011;32018;59.182;18.148;2023-04-01T14:48:17;0.50;;;0.50;;
46284;SDS011;32018;59.182;18.148;2023-04-01T14:50:49;0.40;;;0.40;;
46284;SDS011;32018;59.182;18.148;2023-04-01T14:55:51;2.30;;;0.50;;
46284;SDS011;32018;59.182;18.148;2023-04-01T14:58:17;0.60;;;0.60;;
46284;SDS011;32018;59.182;18.148;2023-04-01T15:00:47;0.47;;;0.47;;
46284;SDS011;32018;59.182;18.148;2023-04-01T15:03:29;0.50;;;0.50;;
46284;SDS011;32018;59.182;18.148;2023-04-01T15:06:45;0.73;;;0.50;;
46284;SDS011;32018;59.182;18.148;2023-04-01T15:16:31;0.65;;;0.57;;
46284;SDS011;32018;59.182;18.148;2023-04-01T15:29:08;0.50;;;0.50;;
46284;SDS011;32018;59.182;18.148;2023-04-01T15:31:41;0.40;;;0.40;;
46284;SDS011;32018;59.182;18.148;2023-04-01T15:37:12;0.77;;;0.68;;
46284;SDS011;32018;59.182;18.148;2023-04-01T15:42:18;0.40;;;0.40;;
46284;SDS011;32018;59.182;18.148;2023-04-01T15:49:46;0.82;;;0.50;;
46284;SDS011;32018;59.182;18.148;2023-04-01T15:52:23;0.50;;;0.50;;
46284;SDS011;32018;59.182;18.148;2023-04-01T15:54:59;0.50;;;0.50;;
46284;SDS011;32018;59.182;18.148;2023-04-01T16:05:31;0.50;;;0.50;;
46284;SDS011;32018;59.182;18.148;2023-04-01T16:10:30;0.35;;;0.35;;
46284;SDS011;32018;59.182;18.148;2023-04-01T16:18:31;0.65;;;0.63;;
46284;SDS011;32018;59.182;18.148;2023-04-01T16:23:37;0.43;;;0.43;;
46284;SDS011;32018;59.182;18.148;2023-04-01T16:29:07;0.63;;;0.60;;
46284;SDS011;32018;59.182;18.148;2023-04-01T16:31:38;3.45;;;0.65;;
46284;SDS011;32018;59.182;18.148;2023-04-01T16:40:00;1.02;;;0.70;;
46284;SDS011;32018;59.182;18.148;2023-04-01T16:42:40;1.88;;;0.88;;
46284;SDS011;32018;59.182;18.148;2023-04-01T16:45:15;1.58;;;0.80;;
46284;SDS011;32018;59.182;18.148;2023-04-01T16:47:55;0.98;;;0.65;;
46284;SDS011;32018;59.182;18.148;2023-04-01T16:50:22;1.38;;;0.80;;
46284;SDS011;32018;59.182;18.148;2023-04-01T16:53:02;0.80;;;0.80;;
46284;SDS011;32018;59.182;18.148;2023-04-01T16:58:19;1.10;;;0.60;;
46284;SDS011;32018;59.182;18.148;2023-04-01T17:00:49;0.50;;;0.50;;
46284;SDS011;32018;59.182;18.148;2023-04-01T17:06:17;0.88;;;0.60;;
46284;SDS011;32018;59.182;18.148;2023-04-01T17:08:49;0.70;;;0.40;;
46284;SDS011;32018;59.182;18.148;2023-04-01T17:11:18;0.55;;;0.52;;
46284;SDS011;32018;59.182;18.148;2023-04-01T17:13:46;0.75;;;0.60;;
46284;SDS011;32018;59.182;18.148;2023-04-01T17:18:53;0.82;;;0.60;;
46284;SDS011;32018;59.182;18.148;2023-04-01T17:24:33;0.55;;;0.47;;
46284;SDS011;32018;59.182;18.148;2023-04-01T17:29:56;1.40;;;0.70;;
46284;SDS011;32018;59.182;18.148;2023-04-01T17:35:19;0.85;;;0.60;;
46284;SDS011;32018;59.182;18.148;2023-04-01T17:46:02;0.57;;;0.57;;
46284;SDS011;32018;59.182;18.148;2023-04-01T17:48:35;0.80;;;0.70;;
46284;SDS011;32018;59.182;18.148;2023-04-01T17:51:17;1.75;;;0.60;;
46284;SDS011;32018;59.182;18.148;2023-04-01T17:53:55;2.40;;;0.95;;
46284;SDS011;32018;59.182;18.148;2023-04-01T17:59:07;5.75;;;0.90;;
46284;SDS011;32018;59.182;18.148;2023-04-01T18:04:30;1.48;;;0.90;;
46284;SDS011;32018;59.182;18.148;2023-04-01T18:07:08;2.03;;;0.93;;
46284;SDS011;32018;59.182;18.148;2023-04-01T18:22:44;1.13;;;0.80;;
46284;SDS011;32018;59.182;18.148;2023-04-01T18:27:50;1.05;;;0.68;;
46284;SDS011;32018;59.182;18.148;2023-04-01T18:30:18;5.88;;;0.93;;
46284;SDS011;32018;59.182;18.148;2023-04-01T18:35:34;1.27;;;1.15;;
46284;SDS011;32018;59.182;18.148;2023-04-01T18:38:18;2.38;;;1.00;;
46284;SDS011;32018;59.182;18.148;2023-04-01T18:40:54;2.90;;;1.00;;
46284;SDS011;32018;59.182;18.148;2023-04-01T18:43:27;1.17;;;0.77;;
46284;SDS011;32018;59.182;18.148;2023-04-01T18:46:03;1.20;;;0.77;;
46284;SDS011;32018;59.182;18.148;2023-04-01T18:48:37;2.38;;;1.10;;
46284;SDS011;32018;59.182;18.148;2023-04-01T18:54:17;1.50;;;0.80;;
46284;SDS011;32018;59.182;18.148;2023-04-01T18:56:38;1.52;;;1.10;;
46284;SDS011;32018;59.182;18.148;2023-04-01T18:59:22;2.28;;;1.00;;
46284;SDS011;32018;59.182;18.148;2023-04-01T19:01:57;1.83;;;0.98;;
46284;SDS011;32018;59.182;18.148;2023-04-01T19:04:28;1.13;;;0.75;;
46284;SDS011;32018;59.182;18.148;2023-04-01T19:06:56;1.55;;;1.00;;
46284;SDS011;32018;59.182;18.148;2023-04-01T19:09:32;1.02;;;0.70;;
46284;SDS011;32018;59.182;18.148;2023-04-01T19:14:53;1.85;;;0.90;;
46284;SDS011;32018;59.182;18.148;2023-04-01T19:25:29;1.98;;;1.05;;
46284;SDS011;32018;59.182;18.148;2023-04-01T19:33:22;1.90;;;0.80;;
46284;SDS011;32018;59.182;18.148;2023-04-01T19:44:02;2.80;;;1.30;;
46284;SDS011;32018;59.182;18.148;2023-04-01T19:46:40;1.40;;;1.02;;
46284;SDS011;32018;59.182;18.148;2023-04-01T19:51:55;1.70;;;0.90;;
46284;SDS011;32018;59.182;18.148;2023-04-01T19:59:19;2.25;;;0.88;;
46284;SDS011;32018;59.182;18.148;2023-04-01T20:01:53;1.83;;;0.90;;
46284;SDS011;32018;59.182;18.148;2023-04-01T20:04:27;1.70;;;1.30;;
46284;SDS011;32018;59.182;18.148;2023-04-01T20:14:50;1.23;;;0.90;;
46284;SDS011;32018;59.182;18.148;2023-04-01T20:20:15;3.00;;;1.02;;
46284;SDS011;32018;59.182;18.148;2023-04-01T20:25:22;2.47;;;1.20;;
46284;SDS011;32018;59.182;18.148;2023-04-01T20:27:56;0.88;;;0.63;;
46284;SDS011;32018;59.182;18.148;2023-04-01T20:33:01;1.63;;;0.80;;
46284;SDS011;32018;59.182;18.148;2023-04-01T20:35:44;1.38;;;0.90;;
46284;SDS011;32018;59.182;18.148;2023-04-01T20:40:52;2.42;;;0.93;;
46284;SDS011;32018;59.182;18.148;2023-04-01T20:43:23;4.00;;;1.30;;
46284;SDS011;32018;59.182;18.148;2023-04-01T20:46:07;2.67;;;0.93;;
46284;SDS011;32018;59.182;18.148;2023-04-01T20:51:12;1.85;;;1.20;;
46284;SDS011;32018;59.182;18.148;2023-04-01T20:58:45;1.57;;;1.07;;
46284;SDS011;32018;59.182;18.148;2023-04-01T21:01:15;2.25;;;1.00;;
46284;SDS011;32018;59.182;18.148;2023-04-01T21:06:10;2.88;;;1.00;;
46284;SDS011;32018;59.182;18.148;2023-04-01T21:08:48;1.20;;;0.90;;
46284;SDS011;32018;59.182;18.148;2023-04-01T21:14:06;1.63;;;0.93;;
46284;SDS011;32018;59.182;18.148;2023-04-01T21:19:11;2.92;;;1.00;;
46284;SDS011;32018;59.182;18.148;2023-04-01T21:21:58;1.48;;;0.85;;
46284;SDS011;32018;59.182;18.148;2023-04-01T21:29:40;4.30;;;1.30;;
46284;SDS011;32018;59.182;18.148;2023-04-01T21:34:43;1.70;;;1.20;;
46284;SDS011;32018;59.182;18.148;2023-04-01T21:37:22;3.42;;;1.30;;
46284;SDS011;32018;59.182;18.148;2023-04-01T21:57:43;1.50;;;1.10;;
46284;SDS011;32018;59.182;18.148;2023-04-01T22:00:17;1.55;;;0.85;;
46284;SDS011;32018;59.182;18.148;2023-04-01T22:12:46;2.40;;;1.25;;
46284;SDS011;32018;59.182;18.148;2023-04-01T22:17:41;3.47;;;1.30;;
46284;SDS011;32018;59.182;18.148;2023-04-01T22:25:35;1.70;;;0.98;;
46284;SDS011;32018;59.182;18.148;2023-04-01T22:28:03;1.20;;;0.80;;
46284;SDS011;32018;59.182;18.148;2023-04-01T22:30:34;1.92;;;1.05;;
46284;SDS011;32018;59.182;18.148;2023-04-01T22:33:11;1.98;;;1.42;;
46284;SDS011;32018;59.182;18.148;2023-04-01T22:35:44;2.55;;;1.15;;
46284;SDS011;32018;59.182;18.148;2023-04-01T22:38:18;1.25;;;0.85;;
46284;SDS011;32018;59.182;18.148;2023-04-01T22:43:37;6.82;;;1.30;;
46284;SDS011;32018;59.182;18.148;2023-04-01T22:46:26;1.45;;;1.10;;
46284;SDS011;32018;59.182;18.148;2023-04-01T22:51:38;0.80;;;0.80;;
46284;SDS011;32018;59.182;18.148;2023-04-01T22:54:11;1.00;;;0.90;;
46284;SDS011;32018;59.182;18.148;2023-04-01T22:56:54;0.80;;;0.80;;
46284;SDS011;32018;59.182;18.148;2023-04-01T23:01:52;1.45;;;0.90;;
46284;SDS011;32018;59.182;18.148;2023-04-01T23:04:18;1.65;;;1.00;;
46284;SDS011;32018;59.182;18.148;2023-04-01T23:06:47;2.00;;;1.10;;
46284;SDS011;32018;59.182;18.148;2023-04-01T23:09:25;1.58;;;0.90;;
46284;SDS011;32018;59.182;18.148;2023-04-01T23:11:55;1.38;;;0.90;;
46284;SDS011;32018;59.182;18.148;2023-04-01T23:20:14;2.05;;;1.10;;
46284;SDS011;32018;59.182;18.148;2023-04-01T23:22:30;3.78;;;1.25;;
46284;SDS011;32018;59.182;18.148;2023-04-01T23:25:01;2.22;;;1.00;;
46284;SDS011;32018;59.182;18.148;2023-04-01T23:27:33;2.83;;;1.20;;
46284;SDS011;32018;59.182;18.148;2023-04-01T23:30:01;1.17;;;0.88;;
46284;SDS011;32018;59.182;18.148;2023-04-01T23:32:26;1.75;;;1.10;;
46284;SDS011;32018;59.182;18.148;2023-04-01T23:34:52;1.85;;;1.10;;
46284;SDS011;32018;59.182;18.148;2023-04-01T23:37:19;1.95;;;1.00;;
46284;SDS011;32018;59.182;18.148;2023-04-01T23:39:45;1.80;;;1.20;;
46284;SDS011;32018;59.182;18.148;2023-04-01T23:42:17;3.42;;;1.23;;
46284;SDS011;32018;59.182;18.148;2023-04-01T23:44:44;1.35;;;0.85;;
46284;SDS011;32018;59.182;18.148;2023-04-01T23:47:15;1.58;;;1.00;;
46284;SDS011;32018;59.182;18.148;2023-04-01T23:49:44;1.88;;;0.90;;
46284;SDS011;32018;59.182;18.148;2023-04-01T23:52:13;1.80;;;0.95;;
46284;SDS011;32018;59.182;18.148;2023-04-01T23:57:09;1.02;;;0.90;;
46284;SDS011;32018;59.182;18.148;2023-04-01T23:59:35;0.93;;;0.80;;
